sensor_id;sensor_type;location;lat;lon;timestamp;P1;durP1;ratioP1;P2;durP2;ratioP2
28335;SDS011;15592;53.656;7.276;2023-06-05T00:01:05;3.60;;;2.88;;
28335;SDS011;15592;53.656;7.276;2023-06-05T00:03:31;5.47;;;2.90;;
28335;SDS011;15592;53.656;7.276;2023-06-05T00:05:57;4.35;;;2.92;;
28335;SDS011;15592;53.656;7.276;2023-06-05T00:08:23;3.88;;;2.80;;
28335;SDS011;15592;53.656;7.276;2023-06-05T00:10:48;3.97;;;3.30;;
28335;SDS011;15592;53.656;7.276;2023-06-05T00:13:14;3.97;;;2.70;;
28335;SDS011;15592;53.656;7.276;2023-06-05T00:15:40;3.45;;;2.90;;
28335;SDS011;15592;53.656;7.276;2023-06-05T00:18:05;5.80;;;3.00;;
28335;SDS011;15592;53.656;7.276;2023-06-05T00:20:31;3.38;;;2.65;;
28335;SDS011;15592;53.656;7.276;2023-06-05T00:22:57;3.63;;;2.70;;
28335;SDS011;15592;53.656;7.276;2023-06-05T00:25:23;3.15;;;2.80;;
28335;SDS011;15592;53.656;7.276;2023-06-05T00:27:49;4.38;;;3.08;;
28335;SDS011;15592;53.656;7.276;2023-06-05T00:30:14;4.32;;;2.70;;
28335;SDS011;15592;53.656;7.276;2023-06-05T00:32:41;3.92;;;3.20;;
28335;SDS011;15592;53.656;7.276;2023-06-05T00:35:06;3.33;;;2.80;;
28335;SDS011;15592;53.656;7.276;2023-06-05T00:37:33;4.72;;;2.65;;
28335;SDS011;15592;53.656;7.276;2023-06-05T00:39:59;4.00;;;2.80;;
28335;SDS011;15592;53.656;7.276;2023-06-05T00:42:25;6.93;;;2.85;;
28335;SDS011;15592;53.656;7.276;2023-06-05T00:44:53;4.55;;;2.90;;
28335;SDS011;15592;53.656;7.276;2023-06-05T00:47:19;3.45;;;2.60;;
28335;SDS011;15592;53.656;7.276;2023-06-05T00:49:45;5.65;;;2.88;;
28335;SDS011;15592;53.656;7.276;2023-06-05T00:52:12;5.93;;;3.03;;
28335;SDS011;15592;53.656;7.276;2023-06-05T00:54:38;3.58;;;2.65;;
28335;SDS011;15592;53.656;7.276;2023-06-05T00:57:05;3.42;;;2.40;;
28335;SDS011;15592;53.656;7.276;2023-06-05T00:59:32;4.20;;;3.10;;
28335;SDS011;15592;53.656;7.276;2023-06-05T01:01:59;4.18;;;2.55;;
28335;SDS011;15592;53.656;7.276;2023-06-05T01:04:27;3.03;;;2.55;;
28335;SDS011;15592;53.656;7.276;2023-06-05T01:06:53;3.03;;;2.50;;
28335;SDS011;15592;53.656;7.276;2023-06-05T01:09:22;3.55;;;2.50;;
28335;SDS011;15592;53.656;7.276;2023-06-05T01:11:50;2.70;;;2.38;;
28335;SDS011;15592;53.656;7.276;2023-06-05T01:14:22;3.28;;;2.67;;
28335;SDS011;15592;53.656;7.276;2023-06-05T01:16:50;2.75;;;2.33;;
28335;SDS011;15592;53.656;7.276;2023-06-05T01:19:18;3.15;;;2.50;;
28335;SDS011;15592;53.656;7.276;2023-06-05T01:21:53;3.38;;;2.60;;
28335;SDS011;15592;53.656;7.276;2023-06-05T01:24:22;3.10;;;2.10;;
28335;SDS011;15592;53.656;7.276;2023-06-05T01:33:05;2.17;;;1.90;;
28335;SDS011;15592;53.656;7.276;2023-06-05T01:35:18;2.90;;;2.20;;
28335;SDS011;15592;53.656;7.276;2023-06-05T01:37:46;1.98;;;1.77;;
28335;SDS011;15592;53.656;7.276;2023-06-05T01:40:19;2.03;;;1.83;;
28335;SDS011;15592;53.656;7.276;2023-06-05T01:42:46;2.17;;;1.63;;
28335;SDS011;15592;53.656;7.276;2023-06-05T01:45:13;2.10;;;1.90;;
28335;SDS011;15592;53.656;7.276;2023-06-05T01:47:40;2.30;;;1.77;;
28335;SDS011;15592;53.656;7.276;2023-06-05T01:50:07;1.67;;;1.58;;
28335;SDS011;15592;53.656;7.276;2023-06-05T01:52:34;2.28;;;1.90;;
28335;SDS011;15592;53.656;7.276;2023-06-05T01:55:00;1.60;;;1.50;;
28335;SDS011;15592;53.656;7.276;2023-06-05T01:57:30;2.20;;;2.00;;
28335;SDS011;15592;53.656;7.276;2023-06-05T01:59:58;1.90;;;1.70;;
28335;SDS011;15592;53.656;7.276;2023-06-05T02:02:37;2.78;;;1.80;;
28335;SDS011;15592;53.656;7.276;2023-06-05T02:05:05;2.55;;;2.20;;
28335;SDS011;15592;53.656;7.276;2023-06-05T02:07:32;2.47;;;2.28;;
28335;SDS011;15592;53.656;7.276;2023-06-05T02:09:58;2.92;;;2.33;;
28335;SDS011;15592;53.656;7.276;2023-06-05T02:12:26;3.28;;;1.88;;
28335;SDS011;15592;53.656;7.276;2023-06-05T02:14:52;2.42;;;2.22;;
28335;SDS011;15592;53.656;7.276;2023-06-05T02:17:17;2.97;;;2.65;;
28335;SDS011;15592;53.656;7.276;2023-06-05T02:19:43;2.90;;;2.55;;
28335;SDS011;15592;53.656;7.276;2023-06-05T02:22:08;2.38;;;2.17;;
28335;SDS011;15592;53.656;7.276;2023-06-05T02:24:34;2.60;;;2.30;;
28335;SDS011;15592;53.656;7.276;2023-06-05T02:27:00;2.72;;;2.00;;
28335;SDS011;15592;53.656;7.276;2023-06-05T02:29:26;2.55;;;2.17;;
28335;SDS011;15592;53.656;7.276;2023-06-05T02:31:51;1.85;;;1.73;;
28335;SDS011;15592;53.656;7.276;2023-06-05T02:34:17;2.00;;;1.80;;
28335;SDS011;15592;53.656;7.276;2023-06-05T02:36:43;2.30;;;2.08;;
28335;SDS011;15592;53.656;7.276;2023-06-05T02:39:11;1.90;;;1.70;;
28335;SDS011;15592;53.656;7.276;2023-06-05T02:41:37;1.73;;;1.60;;
28335;SDS011;15592;53.656;7.276;2023-06-05T02:44:03;1.90;;;1.70;;
28335;SDS011;15592;53.656;7.276;2023-06-05T02:46:28;2.30;;;1.70;;
28335;SDS011;15592;53.656;7.276;2023-06-05T02:48:54;2.15;;;1.90;;
28335;SDS011;15592;53.656;7.276;2023-06-05T02:51:19;1.67;;;1.45;;
28335;SDS011;15592;53.656;7.276;2023-06-05T02:53:45;2.17;;;1.98;;
28335;SDS011;15592;53.656;7.276;2023-06-05T02:56:11;2.47;;;1.98;;
28335;SDS011;15592;53.656;7.276;2023-06-05T02:58:37;2.00;;;1.83;;
28335;SDS011;15592;53.656;7.276;2023-06-05T03:01:04;2.35;;;2.00;;
28335;SDS011;15592;53.656;7.276;2023-06-05T03:03:33;1.92;;;1.73;;
28335;SDS011;15592;53.656;7.276;2023-06-05T03:05:59;2.20;;;1.98;;
28335;SDS011;15592;53.656;7.276;2023-06-05T03:08:32;2.13;;;1.92;;
28335;SDS011;15592;53.656;7.276;2023-06-05T03:11:00;2.10;;;1.90;;
28335;SDS011;15592;53.656;7.276;2023-06-05T03:13:26;2.15;;;1.75;;
28335;SDS011;15592;53.656;7.276;2023-06-05T03:15:52;2.10;;;1.90;;
28335;SDS011;15592;53.656;7.276;2023-06-05T03:18:19;1.88;;;1.63;;
28335;SDS011;15592;53.656;7.276;2023-06-05T03:20:46;2.13;;;1.80;;
28335;SDS011;15592;53.656;7.276;2023-06-05T03:23:13;2.47;;;1.90;;
28335;SDS011;15592;53.656;7.276;2023-06-05T03:25:38;2.05;;;1.85;;
28335;SDS011;15592;53.656;7.276;2023-06-05T03:28:04;2.20;;;1.85;;
28335;SDS011;15592;53.656;7.276;2023-06-05T03:30:29;2.03;;;1.83;;
28335;SDS011;15592;53.656;7.276;2023-06-05T03:32:55;2.53;;;2.10;;
28335;SDS011;15592;53.656;7.276;2023-06-05T03:35:20;2.13;;;1.90;;
28335;SDS011;15592;53.656;7.276;2023-06-05T03:37:46;1.88;;;1.73;;
28335;SDS011;15592;53.656;7.276;2023-06-05T03:40:12;1.63;;;1.52;;
28335;SDS011;15592;53.656;7.276;2023-06-05T03:42:37;2.10;;;1.90;;
28335;SDS011;15592;53.656;7.276;2023-06-05T03:45:03;1.60;;;1.50;;
28335;SDS011;15592;53.656;7.276;2023-06-05T03:47:29;1.98;;;1.77;;
28335;SDS011;15592;53.656;7.276;2023-06-05T03:49:55;1.98;;;1.77;;
28335;SDS011;15592;53.656;7.276;2023-06-05T03:52:21;2.08;;;1.70;;
28335;SDS011;15592;53.656;7.276;2023-06-05T03:54:49;2.25;;;2.00;;
28335;SDS011;15592;53.656;7.276;2023-06-05T03:57:20;2.13;;;1.92;;
28335;SDS011;15592;53.656;7.276;2023-06-05T03:59:46;2.00;;;1.70;;
28335;SDS011;15592;53.656;7.276;2023-06-05T04:02:12;1.95;;;1.70;;
28335;SDS011;15592;53.656;7.276;2023-06-05T04:04:38;1.50;;;1.40;;
28335;SDS011;15592;53.656;7.276;2023-06-05T04:07:04;2.00;;;1.80;;
28335;SDS011;15592;53.656;7.276;2023-06-05T04:09:30;1.98;;;1.42;;
28335;SDS011;15592;53.656;7.276;2023-06-05T04:11:56;1.70;;;1.60;;
28335;SDS011;15592;53.656;7.276;2023-06-05T04:14:22;1.88;;;1.50;;
28335;SDS011;15592;53.656;7.276;2023-06-05T04:16:48;1.80;;;1.70;;
28335;SDS011;15592;53.656;7.276;2023-06-05T04:19:14;2.00;;;1.63;;
28335;SDS011;15592;53.656;7.276;2023-06-05T04:21:40;1.75;;;1.65;;
28335;SDS011;15592;53.656;7.276;2023-06-05T04:24:06;1.65;;;1.55;;
28335;SDS011;15592;53.656;7.276;2023-06-05T04:26:35;1.60;;;1.50;;
28335;SDS011;15592;53.656;7.276;2023-06-05T04:29:02;1.70;;;1.60;;
28335;SDS011;15592;53.656;7.276;2023-06-05T04:31:31;2.17;;;1.98;;
28335;SDS011;15592;53.656;7.276;2023-06-05T04:33:58;1.88;;;1.67;;
28335;SDS011;15592;53.656;7.276;2023-06-05T04:36:25;2.38;;;2.17;;
28335;SDS011;15592;53.656;7.276;2023-06-05T04:38:52;1.70;;;1.60;;
28335;SDS011;15592;53.656;7.276;2023-06-05T04:41:18;2.13;;;1.92;;
28335;SDS011;15592;53.656;7.276;2023-06-05T04:43:43;3.33;;;2.67;;
28335;SDS011;15592;53.656;7.276;2023-06-05T04:46:09;2.83;;;2.40;;
28335;SDS011;15592;53.656;7.276;2023-06-05T04:48:35;4.20;;;2.45;;
28335;SDS011;15592;53.656;7.276;2023-06-05T04:51:01;4.15;;;3.03;;
28335;SDS011;15592;53.656;7.276;2023-06-05T04:53:27;2.50;;;2.28;;
28335;SDS011;15592;53.656;7.276;2023-06-05T04:55:57;2.60;;;2.30;;
28335;SDS011;15592;53.656;7.276;2023-06-05T04:58:26;2.90;;;2.40;;
28335;SDS011;15592;53.656;7.276;2023-06-05T05:00:52;2.90;;;2.60;;
28335;SDS011;15592;53.656;7.276;2023-06-05T05:03:17;5.68;;;2.80;;
28335;SDS011;15592;53.656;7.276;2023-06-05T05:05:43;4.78;;;2.35;;
28335;SDS011;15592;53.656;7.276;2023-06-05T05:08:09;2.78;;;2.40;;
28335;SDS011;15592;53.656;7.276;2023-06-05T05:10:35;4.03;;;2.60;;
28335;SDS011;15592;53.656;7.276;2023-06-05T05:13:01;4.22;;;2.63;;
28335;SDS011;15592;53.656;7.276;2023-06-05T05:15:27;5.05;;;3.00;;
28335;SDS011;15592;53.656;7.276;2023-06-05T05:17:56;4.43;;;2.30;;
28335;SDS011;15592;53.656;7.276;2023-06-05T05:20:22;3.28;;;2.20;;
28335;SDS011;15592;53.656;7.276;2023-06-05T05:22:48;5.53;;;2.75;;
28335;SDS011;15592;53.656;7.276;2023-06-05T05:25:14;2.95;;;2.33;;
28335;SDS011;15592;53.656;7.276;2023-06-05T05:27:40;3.70;;;2.70;;
28335;SDS011;15592;53.656;7.276;2023-06-05T05:30:06;4.55;;;2.50;;
28335;SDS011;15592;53.656;7.276;2023-06-05T05:32:32;3.00;;;2.50;;
28335;SDS011;15592;53.656;7.276;2023-06-05T05:34:58;6.38;;;2.60;;
28335;SDS011;15592;53.656;7.276;2023-06-05T05:37:23;4.07;;;2.67;;
28335;SDS011;15592;53.656;7.276;2023-06-05T05:39:50;3.40;;;2.92;;
28335;SDS011;15592;53.656;7.276;2023-06-05T05:42:17;4.47;;;2.53;;
28335;SDS011;15592;53.656;7.276;2023-06-05T05:44:43;4.03;;;2.28;;
28335;SDS011;15592;53.656;7.276;2023-06-05T05:47:09;3.35;;;2.47;;
28335;SDS011;15592;53.656;7.276;2023-06-05T05:49:35;2.80;;;2.40;;
28335;SDS011;15592;53.656;7.276;2023-06-05T05:52:01;3.17;;;2.40;;
28335;SDS011;15592;53.656;7.276;2023-06-05T05:54:27;3.70;;;2.40;;
28335;SDS011;15592;53.656;7.276;2023-06-05T05:56:53;4.00;;;2.53;;
28335;SDS011;15592;53.656;7.276;2023-06-05T05:59:19;3.08;;;2.50;;
28335;SDS011;15592;53.656;7.276;2023-06-05T06:01:45;4.18;;;2.53;;
28335;SDS011;15592;53.656;7.276;2023-06-05T06:04:11;3.97;;;2.83;;
28335;SDS011;15592;53.656;7.276;2023-06-05T06:06:37;4.50;;;2.78;;
28335;SDS011;15592;53.656;7.276;2023-06-05T06:09:04;3.60;;;2.42;;
28335;SDS011;15592;53.656;7.276;2023-06-05T06:11:33;3.58;;;2.63;;
28335;SDS011;15592;53.656;7.276;2023-06-05T06:13:59;6.05;;;2.70;;
28335;SDS011;15592;53.656;7.276;2023-06-05T06:16:25;3.53;;;2.35;;
28335;SDS011;15592;53.656;7.276;2023-06-05T06:18:51;4.55;;;2.60;;
28335;SDS011;15592;53.656;7.276;2023-06-05T06:21:17;4.63;;;2.90;;
28335;SDS011;15592;53.656;7.276;2023-06-05T06:23:43;3.85;;;2.72;;
28335;SDS011;15592;53.656;7.276;2023-06-05T06:26:10;3.60;;;2.65;;
28335;SDS011;15592;53.656;7.276;2023-06-05T06:28:36;3.15;;;2.50;;
28335;SDS011;15592;53.656;7.276;2023-06-05T06:31:02;3.00;;;2.30;;
28335;SDS011;15592;53.656;7.276;2023-06-05T06:33:28;5.47;;;3.30;;
28335;SDS011;15592;53.656;7.276;2023-06-05T06:35:54;4.38;;;2.78;;
28335;SDS011;15592;53.656;7.276;2023-06-05T06:38:23;5.45;;;2.88;;
28335;SDS011;15592;53.656;7.276;2023-06-05T06:40:54;3.05;;;2.30;;
28335;SDS011;15592;53.656;7.276;2023-06-05T06:43:23;4.20;;;2.75;;
28335;SDS011;15592;53.656;7.276;2023-06-05T06:45:50;3.45;;;2.63;;
28335;SDS011;15592;53.656;7.276;2023-06-05T06:48:17;3.40;;;2.70;;
28335;SDS011;15592;53.656;7.276;2023-06-05T06:50:43;4.20;;;2.72;;
28335;SDS011;15592;53.656;7.276;2023-06-05T06:53:09;3.25;;;2.88;;
28335;SDS011;15592;53.656;7.276;2023-06-05T06:55:35;4.28;;;2.70;;
28335;SDS011;15592;53.656;7.276;2023-06-05T06:58:01;3.42;;;2.60;;
28335;SDS011;15592;53.656;7.276;2023-06-05T07:00:27;3.13;;;2.30;;
28335;SDS011;15592;53.656;7.276;2023-06-05T07:02:52;3.17;;;2.83;;
28335;SDS011;15592;53.656;7.276;2023-06-05T07:05:18;3.65;;;2.58;;
28335;SDS011;15592;53.656;7.276;2023-06-05T07:07:45;2.60;;;2.30;;
28335;SDS011;15592;53.656;7.276;2023-06-05T07:10:11;5.93;;;2.47;;
28335;SDS011;15592;53.656;7.276;2023-06-05T07:12:36;4.45;;;2.72;;
28335;SDS011;15592;53.656;7.276;2023-06-05T07:15:02;3.75;;;2.47;;
28335;SDS011;15592;53.656;7.276;2023-06-05T07:17:28;4.85;;;2.50;;
28335;SDS011;15592;53.656;7.276;2023-06-05T07:19:54;2.22;;;1.98;;
28335;SDS011;15592;53.656;7.276;2023-06-05T07:22:19;3.03;;;2.30;;
28335;SDS011;15592;53.656;7.276;2023-06-05T07:24:45;3.20;;;2.47;;
28335;SDS011;15592;53.656;7.276;2023-06-05T07:27:11;4.65;;;3.00;;
28335;SDS011;15592;53.656;7.276;2023-06-05T07:29:37;3.03;;;2.53;;
28335;SDS011;15592;53.656;7.276;2023-06-05T07:32:02;3.38;;;2.22;;
28335;SDS011;15592;53.656;7.276;2023-06-05T07:34:32;4.75;;;2.70;;
28335;SDS011;15592;53.656;7.276;2023-06-05T07:36:58;3.78;;;2.42;;
28335;SDS011;15592;53.656;7.276;2023-06-05T07:39:24;4.95;;;2.45;;
28335;SDS011;15592;53.656;7.276;2023-06-05T07:41:50;4.38;;;2.35;;
28335;SDS011;15592;53.656;7.276;2023-06-05T07:44:17;4.00;;;2.33;;
28335;SDS011;15592;53.656;7.276;2023-06-05T07:46:44;2.67;;;2.42;;
28335;SDS011;15592;53.656;7.276;2023-06-05T07:49:11;3.63;;;2.58;;
28335;SDS011;15592;53.656;7.276;2023-06-05T07:51:37;4.30;;;2.65;;
28335;SDS011;15592;53.656;7.276;2023-06-05T07:54:05;3.00;;;2.45;;
28335;SDS011;15592;53.656;7.276;2023-06-05T07:56:32;3.80;;;2.47;;
28335;SDS011;15592;53.656;7.276;2023-06-05T07:58:58;4.15;;;2.35;;
28335;SDS011;15592;53.656;7.276;2023-06-05T08:01:24;3.30;;;2.25;;
28335;SDS011;15592;53.656;7.276;2023-06-05T08:03:50;2.22;;;2.03;;
28335;SDS011;15592;53.656;7.276;2023-06-05T08:06:16;3.85;;;2.53;;
28335;SDS011;15592;53.656;7.276;2023-06-05T08:08:42;3.17;;;2.20;;
28335;SDS011;15592;53.656;7.276;2023-06-05T08:11:09;4.57;;;2.50;;
28335;SDS011;15592;53.656;7.276;2023-06-05T08:13:36;3.72;;;2.40;;
28335;SDS011;15592;53.656;7.276;2023-06-05T08:16:03;5.18;;;2.70;;
28335;SDS011;15592;53.656;7.276;2023-06-05T08:18:29;3.30;;;2.28;;
28335;SDS011;15592;53.656;7.276;2023-06-05T08:20:55;4.25;;;2.90;;
28335;SDS011;15592;53.656;7.276;2023-06-05T08:23:21;3.28;;;2.30;;
28335;SDS011;15592;53.656;7.276;2023-06-05T08:25:46;2.90;;;2.30;;
28335;SDS011;15592;53.656;7.276;2023-06-05T08:28:13;2.90;;;2.20;;
28335;SDS011;15592;53.656;7.276;2023-06-05T08:30:42;2.33;;;2.00;;
28335;SDS011;15592;53.656;7.276;2023-06-05T08:33:09;2.28;;;2.00;;
28335;SDS011;15592;53.656;7.276;2023-06-05T08:35:35;4.70;;;2.83;;
28335;SDS011;15592;53.656;7.276;2023-06-05T08:38:02;3.58;;;2.45;;
28335;SDS011;15592;53.656;7.276;2023-06-05T08:40:28;3.40;;;2.47;;
28335;SDS011;15592;53.656;7.276;2023-06-05T08:42:54;4.85;;;2.33;;
28335;SDS011;15592;53.656;7.276;2023-06-05T08:45:21;3.38;;;2.10;;
28335;SDS011;15592;53.656;7.276;2023-06-05T08:47:49;4.45;;;2.22;;
28335;SDS011;15592;53.656;7.276;2023-06-05T08:50:16;3.17;;;2.33;;
28335;SDS011;15592;53.656;7.276;2023-06-05T08:52:42;2.67;;;2.22;;
28335;SDS011;15592;53.656;7.276;2023-06-05T08:55:08;4.50;;;2.20;;
28335;SDS011;15592;53.656;7.276;2023-06-05T08:57:35;3.38;;;2.67;;
28335;SDS011;15592;53.656;7.276;2023-06-05T09:00:08;3.58;;;3.08;;
28335;SDS011;15592;53.656;7.276;2023-06-05T09:02:37;4.18;;;2.47;;
28335;SDS011;15592;53.656;7.276;2023-06-05T09:05:05;4.00;;;2.60;;
28335;SDS011;15592;53.656;7.276;2023-06-05T09:07:32;5.07;;;3.03;;
28335;SDS011;15592;53.656;7.276;2023-06-05T09:09:58;4.97;;;3.00;;
28335;SDS011;15592;53.656;7.276;2023-06-05T09:12:23;3.28;;;2.65;;
28335;SDS011;15592;53.656;7.276;2023-06-05T09:14:50;5.40;;;2.90;;
28335;SDS011;15592;53.656;7.276;2023-06-05T09:17:16;4.03;;;2.90;;
28335;SDS011;15592;53.656;7.276;2023-06-05T09:19:42;6.38;;;3.08;;
28335;SDS011;15592;53.656;7.276;2023-06-05T09:22:10;3.40;;;3.00;;
28335;SDS011;15592;53.656;7.276;2023-06-05T09:24:37;4.63;;;3.05;;
28335;SDS011;15592;53.656;7.276;2023-06-05T09:27:06;5.88;;;3.10;;
28335;SDS011;15592;53.656;7.276;2023-06-05T09:29:39;4.63;;;2.63;;
28335;SDS011;15592;53.656;7.276;2023-06-05T09:32:07;4.68;;;2.70;;
28335;SDS011;15592;53.656;7.276;2023-06-05T09:34:35;3.78;;;2.85;;
28335;SDS011;15592;53.656;7.276;2023-06-05T09:37:03;3.45;;;3.15;;
28335;SDS011;15592;53.656;7.276;2023-06-05T09:39:30;5.38;;;3.00;;
28335;SDS011;15592;53.656;7.276;2023-06-05T09:41:57;6.30;;;2.78;;
28335;SDS011;15592;53.656;7.276;2023-06-05T09:44:23;4.55;;;2.95;;
28335;SDS011;15592;53.656;7.276;2023-06-05T09:47:00;6.20;;;3.22;;
28335;SDS011;15592;53.656;7.276;2023-06-05T09:51:57;3.30;;;3.00;;
28335;SDS011;15592;53.656;7.276;2023-06-05T09:54:27;4.85;;;3.15;;
28335;SDS011;15592;53.656;7.276;2023-06-05T09:57:00;5.47;;;3.33;;
28335;SDS011;15592;53.656;7.276;2023-06-05T09:59:28;4.68;;;3.55;;
28335;SDS011;15592;53.656;7.276;2023-06-05T10:01:56;5.13;;;3.22;;
28335;SDS011;15592;53.656;7.276;2023-06-05T10:04:28;5.10;;;3.20;;
28335;SDS011;15592;53.656;7.276;2023-06-05T10:06:55;4.78;;;3.55;;
28335;SDS011;15592;53.656;7.276;2023-06-05T10:09:26;5.40;;;3.67;;
28335;SDS011;15592;53.656;7.276;2023-06-05T10:11:53;6.97;;;3.67;;
28335;SDS011;15592;53.656;7.276;2023-06-05T10:14:20;4.88;;;3.05;;
28335;SDS011;15592;53.656;7.276;2023-06-05T10:16:50;5.20;;;3.47;;
28335;SDS011;15592;53.656;7.276;2023-06-05T10:19:17;8.88;;;3.88;;
28335;SDS011;15592;53.656;7.276;2023-06-05T10:21:47;5.95;;;3.63;;
28335;SDS011;15592;53.656;7.276;2023-06-05T10:24:20;5.43;;;3.70;;
28335;SDS011;15592;53.656;7.276;2023-06-05T10:37:51;7.95;;;4.60;;
28335;SDS011;15592;53.656;7.276;2023-06-05T10:40:23;8.10;;;4.65;;
28335;SDS011;15592;53.656;7.276;2023-06-05T10:42:50;4.95;;;3.50;;
28335;SDS011;15592;53.656;7.276;2023-06-05T10:45:29;6.80;;;3.60;;
28335;SDS011;15592;53.656;7.276;2023-06-05T10:47:55;8.45;;;4.95;;
28335;SDS011;15592;53.656;7.276;2023-06-05T10:50:21;7.65;;;4.93;;
28335;SDS011;15592;53.656;7.276;2023-06-05T10:52:50;5.38;;;4.15;;
28335;SDS011;15592;53.656;7.276;2023-06-05T10:55:17;6.68;;;3.88;;
28335;SDS011;15592;53.656;7.276;2023-06-05T11:00:28;8.13;;;4.53;;
28335;SDS011;15592;53.656;7.276;2023-06-05T11:02:54;5.95;;;4.07;;
28335;SDS011;15592;53.656;7.276;2023-06-05T11:05:20;5.47;;;4.35;;
28335;SDS011;15592;53.656;7.276;2023-06-05T11:07:46;5.82;;;4.25;;
28335;SDS011;15592;53.656;7.276;2023-06-05T11:10:16;6.53;;;3.47;;
28335;SDS011;15592;53.656;7.276;2023-06-05T11:15:33;5.45;;;4.10;;
28335;SDS011;15592;53.656;7.276;2023-06-05T11:20:53;8.75;;;4.97;;
28335;SDS011;15592;53.656;7.276;2023-06-05T11:23:20;6.70;;;4.53;;
28335;SDS011;15592;53.656;7.276;2023-06-05T11:25:47;6.45;;;4.10;;
28335;SDS011;15592;53.656;7.276;2023-06-05T11:28:13;6.57;;;5.20;;
28335;SDS011;15592;53.656;7.276;2023-06-05T11:30:59;6.18;;;3.83;;
28335;SDS011;15592;53.656;7.276;2023-06-05T11:33:25;6.00;;;5.00;;
28335;SDS011;15592;53.656;7.276;2023-06-05T11:35:58;7.40;;;5.05;;
28335;SDS011;15592;53.656;7.276;2023-06-05T11:38:26;8.70;;;4.63;;
28335;SDS011;15592;53.656;7.276;2023-06-05T11:40:51;8.48;;;5.47;;
28335;SDS011;15592;53.656;7.276;2023-06-05T11:43:18;8.40;;;5.50;;
28335;SDS011;15592;53.656;7.276;2023-06-05T11:45:48;7.22;;;4.78;;
28335;SDS011;15592;53.656;7.276;2023-06-05T11:48:15;6.82;;;5.25;;
28335;SDS011;15592;53.656;7.276;2023-06-05T11:50:57;6.35;;;4.22;;
28335;SDS011;15592;53.656;7.276;2023-06-05T11:53:25;7.60;;;5.30;;
28335;SDS011;15592;53.656;7.276;2023-06-05T11:55:52;8.32;;;5.55;;
28335;SDS011;15592;53.656;7.276;2023-06-05T11:58:30;6.28;;;4.60;;
28335;SDS011;15592;53.656;7.276;2023-06-05T12:01:06;6.20;;;4.35;;
28335;SDS011;15592;53.656;7.276;2023-06-05T12:03:39;7.80;;;4.05;;
28335;SDS011;15592;53.656;7.276;2023-06-05T12:06:06;5.18;;;4.28;;
28335;SDS011;15592;53.656;7.276;2023-06-05T12:08:33;5.53;;;4.43;;
28335;SDS011;15592;53.656;7.276;2023-06-05T12:11:00;7.53;;;4.43;;
28335;SDS011;15592;53.656;7.276;2023-06-05T12:16:39;6.78;;;5.05;;
28335;SDS011;15592;53.656;7.276;2023-06-05T12:19:11;8.35;;;4.78;;
28335;SDS011;15592;53.656;7.276;2023-06-05T12:21:38;5.07;;;4.25;;
28335;SDS011;15592;53.656;7.276;2023-06-05T12:24:05;5.13;;;4.15;;
28335;SDS011;15592;53.656;7.276;2023-06-05T12:29:20;7.65;;;4.65;;
28335;SDS011;15592;53.656;7.276;2023-06-05T12:31:50;7.55;;;4.15;;
28335;SDS011;15592;53.656;7.276;2023-06-05T12:34:16;6.47;;;5.25;;
28335;SDS011;15592;53.656;7.276;2023-06-05T12:36:43;7.55;;;4.70;;
28335;SDS011;15592;53.656;7.276;2023-06-05T12:39:10;8.18;;;4.82;;
28335;SDS011;15592;53.656;7.276;2023-06-05T12:41:37;8.82;;;5.45;;
28335;SDS011;15592;53.656;7.276;2023-06-05T12:44:07;7.67;;;5.87;;
28335;SDS011;15592;53.656;7.276;2023-06-05T12:46:33;11.02;;;6.00;;
28335;SDS011;15592;53.656;7.276;2023-06-05T12:49:00;10.02;;;6.65;;
28335;SDS011;15592;53.656;7.276;2023-06-05T12:51:27;7.85;;;5.40;;
28335;SDS011;15592;53.656;7.276;2023-06-05T12:53:56;6.63;;;4.82;;
28335;SDS011;15592;53.656;7.276;2023-06-05T12:56:23;9.27;;;5.70;;
28335;SDS011;15592;53.656;7.276;2023-06-05T12:58:53;10.52;;;5.50;;
28335;SDS011;15592;53.656;7.276;2023-06-05T13:01:21;8.75;;;4.57;;
28335;SDS011;15592;53.656;7.276;2023-06-05T13:03:47;6.03;;;4.55;;
28335;SDS011;15592;53.656;7.276;2023-06-05T13:06:13;7.18;;;5.28;;
28335;SDS011;15592;53.656;7.276;2023-06-05T13:08:38;9.40;;;5.78;;
28335;SDS011;15592;53.656;7.276;2023-06-05T13:11:04;5.95;;;4.40;;
28335;SDS011;15592;53.656;7.276;2023-06-05T13:13:30;7.63;;;4.97;;
28335;SDS011;15592;53.656;7.276;2023-06-05T13:15:57;6.07;;;4.22;;
28335;SDS011;15592;53.656;7.276;2023-06-05T13:18:24;6.35;;;4.43;;
28335;SDS011;15592;53.656;7.276;2023-06-05T13:20:50;6.72;;;4.97;;
28335;SDS011;15592;53.656;7.276;2023-06-05T13:23:15;6.32;;;4.75;;
28335;SDS011;15592;53.656;7.276;2023-06-05T13:25:41;8.85;;;4.95;;
28335;SDS011;15592;53.656;7.276;2023-06-05T13:28:06;6.00;;;4.75;;
28335;SDS011;15592;53.656;7.276;2023-06-05T13:30:32;5.65;;;4.57;;
28335;SDS011;15592;53.656;7.276;2023-06-05T13:32:59;6.72;;;4.35;;
28335;SDS011;15592;53.656;7.276;2023-06-05T13:35:24;8.20;;;4.88;;
28335;SDS011;15592;53.656;7.276;2023-06-05T13:37:50;9.13;;;5.18;;
28335;SDS011;15592;53.656;7.276;2023-06-05T13:40:17;7.30;;;4.40;;
28335;SDS011;15592;53.656;7.276;2023-06-05T13:42:43;7.88;;;5.00;;
28335;SDS011;15592;53.656;7.276;2023-06-05T13:45:08;8.20;;;5.63;;
28335;SDS011;15592;53.656;7.276;2023-06-05T13:47:34;6.75;;;4.85;;
28335;SDS011;15592;53.656;7.276;2023-06-05T13:50:01;9.82;;;5.43;;
28335;SDS011;15592;53.656;7.276;2023-06-05T13:52:27;6.97;;;4.53;;
28335;SDS011;15592;53.656;7.276;2023-06-05T13:54:53;10.30;;;5.20;;
28335;SDS011;15592;53.656;7.276;2023-06-05T13:57:18;8.75;;;4.68;;
28335;SDS011;15592;53.656;7.276;2023-06-05T13:59:44;5.35;;;4.28;;
28335;SDS011;15592;53.656;7.276;2023-06-05T14:02:10;7.38;;;4.70;;
28335;SDS011;15592;53.656;7.276;2023-06-05T14:04:36;6.32;;;4.63;;
28335;SDS011;15592;53.656;7.276;2023-06-05T14:07:02;9.82;;;4.85;;
28335;SDS011;15592;53.656;7.276;2023-06-05T14:09:29;6.93;;;5.03;;
28335;SDS011;15592;53.656;7.276;2023-06-05T14:11:55;7.57;;;5.03;;
28335;SDS011;15592;53.656;7.276;2023-06-05T14:14:22;9.50;;;5.82;;
28335;SDS011;15592;53.656;7.276;2023-06-05T14:16:48;8.80;;;5.28;;
28335;SDS011;15592;53.656;7.276;2023-06-05T14:19:15;8.02;;;5.43;;
28335;SDS011;15592;53.656;7.276;2023-06-05T14:21:41;10.45;;;5.32;;
28335;SDS011;15592;53.656;7.276;2023-06-05T14:24:07;10.88;;;6.28;;
28335;SDS011;15592;53.656;7.276;2023-06-05T14:26:33;11.55;;;6.10;;
28335;SDS011;15592;53.656;7.276;2023-06-05T14:28:59;9.05;;;5.63;;
28335;SDS011;15592;53.656;7.276;2023-06-05T14:31:25;8.55;;;5.60;;
28335;SDS011;15592;53.656;7.276;2023-06-05T14:33:52;8.35;;;5.03;;
28335;SDS011;15592;53.656;7.276;2023-06-05T14:36:18;9.18;;;4.93;;
28335;SDS011;15592;53.656;7.276;2023-06-05T14:38:44;10.73;;;5.82;;
28335;SDS011;15592;53.656;7.276;2023-06-05T14:41:10;5.85;;;4.35;;
28335;SDS011;15592;53.656;7.276;2023-06-05T14:43:36;7.65;;;4.93;;
28335;SDS011;15592;53.656;7.276;2023-06-05T14:46:02;10.27;;;5.10;;
28335;SDS011;15592;53.656;7.276;2023-06-05T14:48:28;8.52;;;5.55;;
28335;SDS011;15592;53.656;7.276;2023-06-05T14:50:54;10.13;;;5.43;;
28335;SDS011;15592;53.656;7.276;2023-06-05T14:53:21;7.60;;;5.40;;
28335;SDS011;15592;53.656;7.276;2023-06-05T14:55:46;10.70;;;6.75;;
28335;SDS011;15592;53.656;7.276;2023-06-05T14:58:12;5.95;;;4.88;;
28335;SDS011;15592;53.656;7.276;2023-06-05T15:00:38;9.82;;;5.57;;
28335;SDS011;15592;53.656;7.276;2023-06-05T15:03:04;9.95;;;6.05;;
28335;SDS011;15592;53.656;7.276;2023-06-05T15:05:30;10.18;;;5.30;;
28335;SDS011;15592;53.656;7.276;2023-06-05T15:07:57;7.68;;;5.75;;
28335;SDS011;15592;53.656;7.276;2023-06-05T15:10:23;11.38;;;6.63;;
28335;SDS011;15592;53.656;7.276;2023-06-05T15:12:49;9.20;;;6.30;;
28335;SDS011;15592;53.656;7.276;2023-06-05T15:15:21;7.93;;;5.13;;
28335;SDS011;15592;53.656;7.276;2023-06-05T15:17:47;9.07;;;4.93;;
28335;SDS011;15592;53.656;7.276;2023-06-05T15:20:13;10.00;;;5.78;;